Time;durP1;ratioP1;P1;durP2;ratioP2;P2;SDS_P1;SDS_P2;PMS_P1;PMS_P2;Temp;Humidity;BMP_temperature;BMP_pressure;BME280_temperature;BME280_humidity;BME280_pressure;Samples;Min_cycle;Max_cycle;Signal;HPM_P1;HPM_P2
2022/01/30 00:00:32;;;;;;;2.20;1.50;;;8.90;99.90;;;;;;5009609;28;20207;-68
2022/01/30 00:02:59;;;;;;;2.73;1.60;;;8.90;99.90;;;;;;5025524;28;20245;-68
2022/01/30 00:05:27;;;;;;;1.60;1.50;;;8.90;99.90;;;;;;5026296;28;20241;-68
2022/01/30 00:07:53;;;;;;;1.70;1.60;;;8.90;99.90;;;;;;5042111;28;20287;-68
2022/01/30 00:10:20;;;;;;;2.00;1.73;;;8.90;99.90;;;;;;5043730;28;20199;-68
2022/01/30 00:12:56;;;;;;;2.90;1.93;;;8.90;99.90;;;;;;5034013;28;20349;-68
2022/01/30 00:15:45;;;;;;;1.97;1.70;;;8.90;99.90;;;;;;5045726;28;20214;-68
2022/01/30 00:18:29;;;;;;;2.40;2.00;;;8.90;99.90;;;;;;5043002;28;20195;-69
2022/01/30 00:21:09;;;;;;;3.63;1.77;;;8.90;99.90;;;;;;5045669;28;20216;-68
2022/01/30 00:23:40;;;;;;;2.23;1.80;;;8.90;99.90;;;;;;5010181;28;20275;-68
2022/01/30 00:26:08;;;;;;;2.43;1.67;;;8.90;99.90;;;;;;5044539;28;20191;-68
2022/01/30 00:28:35;;;;;;;1.70;1.50;;;8.90;99.90;;;;;;5022241;28;20191;-68
2022/01/30 00:31:01;;;;;;;2.03;1.80;;;8.90;99.90;;;;;;5027801;28;20192;-68
2022/01/30 00:33:27;;;;;;;1.97;1.50;;;8.90;99.90;;;;;;5007035;28;20191;-68
2022/01/30 00:35:54;;;;;;;2.50;1.80;;;8.90;99.90;;;;;;5025444;28;20918;-69
2022/01/30 00:38:22;;;;;;;1.93;1.70;;;8.90;99.90;;;;;;5029836;28;20950;-68
2022/01/30 00:40:53;;;;;;;1.90;1.60;;;8.90;99.90;;;;;;5044568;28;20198;-68
2022/01/30 00:43:20;;;;;;;2.40;1.60;;;8.90;99.90;;;;;;5041023;28;20218;-68
2022/01/30 00:45:47;;;;;;;1.87;1.77;;;8.90;99.90;;;;;;5025885;28;20184;-68
2022/01/30 00:48:14;;;;;;;1.80;1.63;;;8.90;99.90;;;;;;5040592;28;20203;-69
2022/01/30 00:50:40;;;;;;;1.97;1.73;;;8.90;99.90;;;;;;5026573;28;20608;-69
2022/01/30 00:53:07;;;;;;;2.00;1.50;;;8.90;99.90;;;;;;5025615;28;20192;-69
2022/01/30 00:55:35;;;;;;;3.13;1.60;;;8.90;99.90;;;;;;5026557;28;20198;-68
2022/01/30 00:58:02;;;;;;;1.80;1.50;;;8.90;99.90;;;;;;5044061;28;20738;-68
2022/01/30 01:00:29;;;;;;;1.67;1.50;;;8.90;99.90;;;;;;5045025;28;20223;-68
2022/01/30 01:02:56;;;;;;;1.90;1.70;;;8.90;99.90;;;;;;5025806;28;20236;-69
2022/01/30 01:05:23;;;;;;;1.90;1.50;;;8.80;99.90;;;;;;5043190;28;20202;-68
2022/01/30 01:07:52;;;;;;;2.00;1.80;;;8.80;99.90;;;;;;5025124;28;20666;-68
2022/01/30 01:23:39;;;;;;;3.20;1.90;;;8.90;99.90;;;;;;5041886;28;20190;-69
2022/01/30 01:26:06;;;;;;;2.23;1.80;;;8.90;99.90;;;;;;5016658;28;20256;-69
2022/01/30 01:28:32;;;;;;;2.10;1.90;;;8.90;99.90;;;;;;5011506;28;20187;-68
2022/01/30 01:30:59;;;;;;;2.00;1.80;;;9.00;99.90;;;;;;5042957;28;20701;-68
2022/01/30 01:33:53;;;;;;;2.33;1.97;;;9.00;99.90;;;;;;5041890;28;20195;-68
2022/01/30 01:36:15;;;;;;;2.30;2.10;;;9.00;99.90;;;;;;5023184;28;20202;-69
2022/01/30 01:38:41;;;;;;;2.13;1.70;;;9.00;99.90;;;;;;5037341;28;20679;-69
2022/01/30 01:41:08;;;;;;;1.90;1.70;;;9.00;99.90;;;;;;5028289;28;20231;-68
2022/01/30 01:43:35;;;;;;;2.87;1.80;;;9.00;99.90;;;;;;5042262;28;20628;-68
2022/01/30 01:46:03;;;;;;;1.80;1.60;;;9.00;99.90;;;;;;5044084;28;20209;-68
2022/01/30 01:48:35;;;;;;;3.90;1.70;;;9.00;99.90;;;;;;5023942;28;20191;-69
2022/01/30 01:51:06;;;;;;;2.87;1.80;;;8.90;99.90;;;;;;5043892;28;20191;-69
2022/01/30 01:53:34;;;;;;;3.33;2.10;;;8.90;99.90;;;;;;5008092;28;20294;-69
2022/01/30 01:56:03;;;;;;;1.90;1.70;;;8.90;99.90;;;;;;5025215;28;20273;-68
2022/01/30 01:58:31;;;;;;;1.90;1.70;;;8.90;99.90;;;;;;5024116;28;20571;-68
2022/01/30 02:00:59;;;;;;;2.50;1.93;;;8.90;99.90;;;;;;5009711;28;20243;-68
2022/01/30 02:03:27;;;;;;;2.13;1.90;;;8.90;99.90;;;;;;5024785;28;20728;-68
2022/01/30 02:05:59;;;;;;;2.20;1.70;;;8.90;99.90;;;;;;5023815;28;20535;-68
2022/01/30 02:26:50;;;;;;;2.10;1.60;;;9.00;99.90;;;;;;5041978;28;21021;-69
2022/01/30 02:29:18;;;;;;;2.63;2.00;;;9.00;99.90;;;;;;5020474;28;20286;-69
2022/01/30 02:31:45;;;;;;;2.60;1.70;;;9.00;99.90;;;;;;5024440;28;20210;-69
2022/01/30 02:34:11;;;;;;;2.73;1.83;;;9.00;99.90;;;;;;5023623;28;20188;-69
2022/01/30 02:36:51;;;;;;;1.70;1.60;;;9.00;99.90;;;;;;5039436;28;20199;-69
2022/01/30 02:39:19;;;;;;;1.60;1.50;;;9.00;99.90;;;;;;5041501;28;20274;-68
2022/01/30 02:41:46;;;;;;;1.50;1.30;;;9.00;99.90;;;;;;5044025;28;20227;-68
2022/01/30 02:44:22;;;;;;;3.67;1.80;;;9.00;99.90;;;;;;5045417;28;20179;-68
2022/01/30 02:46:52;;;;;;;2.60;1.60;;;9.00;99.90;;;;;;5042099;28;20195;-68
2022/01/30 02:52:02;;;;;;;2.10;1.70;;;9.00;99.90;;;;;;5042385;28;20187;-68
2022/01/30 02:54:30;;;;;;;1.50;1.40;;;9.00;99.90;;;;;;5026683;28;20191;-68
2022/01/30 02:56:58;;;;;;;2.00;1.80;;;9.00;99.90;;;;;;5042948;28;20916;-68
2022/01/30 02:59:24;;;;;;;2.73;1.70;;;9.00;99.90;;;;;;5010071;28;20997;-68
2022/01/30 03:01:51;;;;;;;1.87;1.60;;;8.90;99.90;;;;;;5042658;28;20226;-68
2022/01/30 03:04:18;;;;;;;2.10;1.63;;;8.90;99.90;;;;;;5047432;28;20222;-68
2022/01/30 03:06:48;;;;;;;2.50;1.87;;;8.90;99.90;;;;;;5045162;28;20280;-68
2022/01/30 03:09:14;;;;;;;2.37;1.80;;;9.00;99.90;;;;;;5044192;28;20198;-68
2022/01/30 03:11:40;;;;;;;4.63;1.60;;;9.00;99.90;;;;;;5027326;28;20199;-68
2022/01/30 03:14:06;;;;;;;2.00;1.60;;;9.00;99.90;;;;;;5050597;28;20224;-68
2022/01/30 03:16:33;;;;;;;1.80;1.43;;;9.00;99.90;;;;;;5054905;28;20198;-68
2022/01/30 03:19:00;;;;;;;1.57;1.43;;;9.00;99.90;;;;;;5033438;28;20198;-68
2022/01/30 03:21:27;;;;;;;4.77;1.63;;;8.90;99.90;;;;;;5069136;28;20264;-68
2022/01/30 03:23:53;;;;;;;2.23;1.60;;;8.90;99.90;;;;;;5048603;28;20219;-68
2022/01/30 03:26:19;;;;;;;2.10;1.60;;;8.90;99.90;;;;;;5047141;28;20245;-68
2022/01/30 03:28:48;;;;;;;2.07;1.67;;;8.90;99.90;;;;;;5049040;28;20199;-68
2022/01/30 03:31:16;;;;;;;2.70;1.40;;;8.90;99.90;;;;;;5048903;28;20285;-68
2022/01/30 03:33:42;;;;;;;1.60;1.47;;;8.90;99.90;;;;;;5067284;28;20222;-68
2022/01/30 03:36:08;;;;;;;2.00;1.30;;;8.90;99.90;;;;;;5053247;28;20202;-68
2022/01/30 03:38:35;;;;;;;2.30;1.50;;;9.00;99.90;;;;;;5031898;28;20211;-68
2022/01/30 03:41:01;;;;;;;1.70;1.60;;;9.00;99.90;;;;;;5030497;28;20223;-68
2022/01/30 03:43:28;;;;;;;2.60;1.50;;;8.90;99.90;;;;;;5037500;28;20188;-68
2022/01/30 03:45:54;;;;;;;3.17;1.67;;;8.90;99.90;;;;;;5048693;28;20194;-68
2022/01/30 03:48:20;;;;;;;2.17;1.70;;;8.90;99.90;;;;;;5047596;28;20607;-68
2022/01/30 03:50:46;;;;;;;2.80;1.57;;;8.90;99.90;;;;;;5046472;28;20195;-68
2022/01/30 03:53:12;;;;;;;2.27;1.43;;;8.90;99.90;;;;;;5048337;28;20195;-68
2022/01/30 03:55:39;;;;;;;1.73;1.40;;;8.90;99.90;;;;;;5048453;28;20187;-68
2022/01/30 03:58:07;;;;;;;1.83;1.60;;;8.90;99.90;;;;;;5057859;28;20202;-68
2022/01/30 04:00:34;;;;;;;1.70;1.60;;;8.90;99.90;;;;;;5033439;28;20231;-68
2022/01/30 04:03:00;;;;;;;3.63;1.50;;;8.90;99.90;;;;;;5045518;28;20844;-68
2022/01/30 04:05:27;;;;;;;1.30;1.20;;;8.90;99.90;;;;;;5029936;28;20183;-68
2022/01/30 04:07:54;;;;;;;2.57;1.90;;;8.90;99.90;;;;;;5043654;28;20191;-68
2022/01/30 04:10:21;;;;;;;2.70;1.60;;;8.90;99.90;;;;;;5009481;28;20203;-68
2022/01/30 04:12:47;;;;;;;1.63;1.40;;;8.90;99.90;;;;;;5029956;28;20203;-68
2022/01/30 04:15:14;;;;;;;3.57;1.47;;;8.90;99.90;;;;;;5047321;28;20262;-68
2022/01/30 04:17:41;;;;;;;2.20;1.60;;;8.90;99.90;;;;;;5045391;28;20219;-68
2022/01/30 04:20:08;;;;;;;1.70;1.60;;;9.00;99.90;;;;;;5039973;28;20756;-68
2022/01/30 04:22:34;;;;;;;2.23;1.70;;;9.00;99.90;;;;;;5037008;28;20295;-68
2022/01/30 04:25:01;;;;;;;2.40;1.60;;;9.00;99.90;;;;;;5023699;28;20191;-68
2022/01/30 04:27:27;;;;;;;3.27;1.80;;;9.00;99.90;;;;;;5048342;28;20644;-68
2022/01/30 04:29:53;;;;;;;2.10;1.57;;;9.00;99.90;;;;;;5024449;28;20229;-68
2022/01/30 04:32:20;;;;;;;2.33;1.80;;;9.00;99.90;;;;;;5045063;28;20199;-68
2022/01/30 04:34:54;;;;;;;4.87;1.57;;;8.90;99.90;;;;;;5048578;28;20192;-68
2022/01/30 04:37:50;;;;;;;2.20;1.50;;;8.90;99.90;;;;;;5062518;28;20310;-68
2022/01/30 04:56:54;;;;;;;2.20;1.90;;;8.90;99.90;;;;;;5033429;28;20662;-67
2022/01/30 05:09:28;;;;;;;2.53;1.73;;;8.80;99.90;;;;;;5066642;28;20179;-68
2022/01/30 05:11:55;;;;;;;2.27;1.67;;;8.80;99.90;;;;;;5040442;28;20190;-68
2022/01/30 05:14:25;;;;;;;2.23;1.87;;;8.70;99.90;;;;;;5050070;28;20239;-68
2022/01/30 05:16:51;;;;;;;1.63;1.53;;;8.70;99.90;;;;;;5044937;28;20187;-68
2022/01/30 05:19:18;;;;;;;3.00;1.83;;;8.70;99.90;;;;;;5011041;28;20199;-67
2022/01/30 05:21:44;;;;;;;2.40;1.90;;;8.80;99.90;;;;;;5025444;28;20218;-68
2022/01/30 05:24:11;;;;;;;2.77;1.80;;;8.80;99.90;;;;;;5027719;28;20254;-68
2022/01/30 05:26:44;;;;;;;1.93;1.57;;;8.80;99.90;;;;;;5045549;28;20912;-68
2022/01/30 05:29:11;;;;;;;2.60;1.73;;;8.80;99.90;;;;;;5013028;28;20813;-68
2022/01/30 05:31:38;;;;;;;3.00;1.87;;;8.80;99.90;;;;;;5046136;28;20223;-68
2022/01/30 05:34:04;;;;;;;2.13;1.70;;;8.80;99.90;;;;;;5028074;28;20187;-68
2022/01/30 05:36:32;;;;;;;3.50;1.67;;;8.80;99.90;;;;;;5027967;28;20188;-68
2022/01/30 05:39:00;;;;;;;2.13;1.93;;;8.80;99.90;;;;;;5044292;28;20199;-68
2022/01/30 05:41:27;;;;;;;2.73;1.90;;;8.80;99.90;;;;;;5010963;28;20294;-68
2022/01/30 05:43:58;;;;;;;2.23;1.90;;;8.80;99.90;;;;;;5028673;28;20224;-68
2022/01/30 05:46:48;;;;;;;2.80;1.70;;;8.80;99.90;;;;;;5027829;28;20664;-68
2022/01/30 05:49:15;;;;;;;2.20;2.00;;;8.80;99.90;;;;;;5053523;28;20290;-68
2022/01/30 05:51:42;;;;;;;2.00;1.80;;;8.80;99.90;;;;;;5064036;28;20193;-68
2022/01/30 05:54:09;;;;;;;2.57;2.07;;;8.80;99.90;;;;;;5039073;28;20863;-68
2022/01/30 05:56:37;;;;;;;2.10;1.87;;;8.80;99.90;;;;;;5037473;28;20203;-68
2022/01/30 05:59:04;;;;;;;3.30;2.10;;;8.80;99.90;;;;;;5026131;28;20187;-68
2022/01/30 06:01:31;;;;;;;3.33;1.73;;;8.80;99.90;;;;;;5044968;28;20703;-68
2022/01/30 06:03:57;;;;;;;1.63;1.53;;;8.80;99.90;;;;;;5044772;28;20203;-68
2022/01/30 06:06:23;;;;;;;1.90;1.70;;;8.90;99.90;;;;;;5027672;28;20757;-68
2022/01/30 06:09:12;;;;;;;4.23;1.50;;;8.90;99.90;;;;;;5044560;28;20214;-68
2022/01/30 06:11:38;;;;;;;1.33;1.23;;;9.00;99.90;;;;;;5044000;28;20194;-68
2022/01/30 06:14:06;;;;;;;1.53;1.30;;;9.10;99.90;;;;;;5027916;28;20504;-68
2022/01/30 06:16:32;;;;;;;1.20;1.10;;;9.20;99.90;;;;;;5045056;28;20253;-68
2022/01/30 06:18:58;;;;;;;1.33;1.20;;;9.20;99.90;;;;;;5044370;28;20810;-68
2022/01/30 06:21:24;;;;;;;1.73;1.30;;;9.30;99.90;;;;;;5045834;28;20814;-68
2022/01/30 06:23:51;;;;;;;1.90;1.20;;;9.30;99.90;;;;;;5010913;28;20298;-68
2022/01/30 06:26:17;;;;;;;3.50;1.50;;;9.40;99.90;;;;;;5044124;28;20636;-68
2022/01/30 06:28:43;;;;;;;1.40;1.30;;;9.40;99.90;;;;;;5043170;28;20191;-68
2022/01/30 06:31:09;;;;;;;2.83;1.60;;;9.50;99.90;;;;;;5018084;28;20892;-68
2022/01/30 06:33:36;;;;;;;1.60;1.37;;;9.60;99.90;;;;;;5025030;28;20199;-68
2022/01/30 06:36:02;;;;;;;1.80;1.60;;;9.60;99.90;;;;;;5016664;28;20253;-68
2022/01/30 06:38:28;;;;;;;1.70;1.43;;;9.60;99.90;;;;;;5006880;28;20207;-68
2022/01/30 06:40:55;;;;;;;1.33;1.20;;;9.60;99.90;;;;;;5025211;28;20687;-68
2022/01/30 06:43:21;;;;;;;1.70;1.40;;;9.80;99.90;;;;;;5026071;28;20195;-68
2022/01/30 06:45:48;;;;;;;3.60;1.33;;;9.80;99.90;;;;;;5025438;28;20222;-68
2022/01/30 06:48:23;;;;;;;1.60;1.50;;;9.90;99.90;;;;;;5041722;28;20250;-68
2022/01/30 06:50:50;;;;;;;4.07;2.00;;;10.00;99.90;;;;;;5026136;28;20195;-68
2022/01/30 06:53:17;;;;;;;2.73;1.90;;;10.10;99.90;;;;;;5011721;28;20249;-68
2022/01/30 06:55:43;;;;;;;2.53;1.47;;;10.00;99.90;;;;;;5048484;28;20187;-68
2022/01/30 06:58:12;;;;;;;3.90;1.30;;;10.00;99.90;;;;;;5047699;28;20613;-68
2022/01/30 07:00:39;;;;;;;1.40;1.30;;;10.00;99.90;;;;;;5030744;28;20343;-68
2022/01/30 07:03:05;;;;;;;2.00;1.10;;;10.10;99.90;;;;;;5021085;28;20234;-68
2022/01/30 07:05:31;;;;;;;1.93;1.10;;;10.10;99.90;;;;;;5047040;28;20199;-67
2022/01/30 07:07:57;;;;;;;1.30;1.20;;;10.10;99.90;;;;;;5030189;28;20172;-68
2022/01/30 07:10:24;;;;;;;1.50;1.40;;;10.20;99.90;;;;;;5050568;28;20184;-68
2022/01/30 07:12:51;;;;;;;1.83;1.30;;;10.20;99.90;;;;;;5046237;28;20195;-68
2022/01/30 07:15:17;;;;;;;1.60;1.27;;;10.30;99.90;;;;;;5047324;28;20215;-68
2022/01/30 07:17:44;;;;;;;1.80;1.30;;;10.30;99.90;;;;;;5048391;28;20305;-68
2022/01/30 07:20:11;;;;;;;2.00;1.27;;;10.30;99.90;;;;;;5033682;28;20265;-68
2022/01/30 07:22:37;;;;;;;1.37;1.23;;;10.30;99.90;;;;;;5046329;28;20215;-68
2022/01/30 07:25:07;;;;;;;2.47;1.23;;;10.40;99.90;;;;;;5030229;28;20191;-68
2022/01/30 07:27:38;;;;;;;1.13;1.00;;;10.50;99.90;;;;;;5048127;28;20194;-68
2022/01/30 07:30:06;;;;;;;1.30;1.20;;;10.60;99.90;;;;;;5048791;28;20203;-68
2022/01/30 07:32:33;;;;;;;1.20;1.10;;;10.60;99.90;;;;;;5053535;28;20192;-68
2022/01/30 07:34:59;;;;;;;1.97;1.17;;;10.60;99.90;;;;;;5032433;28;20735;-68
2022/01/30 07:37:36;;;;;;;1.50;1.30;;;10.50;99.90;;;;;;5016172;28;20215;-68
2022/01/30 07:40:04;;;;;;;1.57;1.20;;;10.40;99.90;;;;;;5030522;28;20214;-68
2022/01/30 07:42:30;;;;;;;1.60;1.23;;;10.30;99.90;;;;;;5048310;28;20305;-68
2022/01/30 07:44:57;;;;;;;1.60;1.30;;;10.30;99.90;;;;;;5030947;28;20219;-68
2022/01/30 07:47:23;;;;;;;1.87;1.40;;;10.30;99.90;;;;;;5039318;28;20202;-68
2022/01/30 07:49:52;;;;;;;1.47;1.00;;;10.30;99.90;;;;;;5048082;28;20175;-68
2022/01/30 07:52:22;;;;;;;1.30;1.20;;;10.30;99.90;;;;;;5029103;28;20194;-68
2022/01/30 07:54:50;;;;;;;1.70;1.30;;;10.30;99.90;;;;;;5030170;28;20226;-68
2022/01/30 07:57:18;;;;;;;1.20;1.10;;;10.30;99.90;;;;;;5029464;28;20604;-68
2022/01/30 07:59:45;;;;;;;1.50;1.33;;;10.30;99.90;;;;;;5046425;28;20198;-68
2022/01/30 08:02:11;;;;;;;2.23;1.40;;;10.30;99.90;;;;;;5030228;28;20219;-68
2022/01/30 08:04:37;;;;;;;1.70;1.30;;;10.30;99.90;;;;;;5051432;28;20188;-68
2022/01/30 08:07:04;;;;;;;1.40;1.30;;;10.40;99.90;;;;;;5046349;28;20184;-68
2022/01/30 08:09:30;;;;;;;1.40;1.20;;;10.40;99.90;;;;;;5045635;28;20195;-68
2022/01/30 08:11:57;;;;;;;1.50;1.30;;;10.40;99.90;;;;;;5057079;28;20184;-68
2022/01/30 08:14:23;;;;;;;1.30;1.20;;;10.40;99.90;;;;;;5045564;28;20188;-68
2022/01/30 08:16:50;;;;;;;1.50;1.33;;;10.50;99.90;;;;;;5046459;28;20290;-68
2022/01/30 08:19:18;;;;;;;1.47;1.10;;;10.60;99.90;;;;;;5052110;28;20277;-68
2022/01/30 08:21:44;;;;;;;2.37;1.40;;;10.60;99.90;;;;;;5066313;28;20730;-68
2022/01/30 08:24:10;;;;;;;1.20;1.10;;;10.60;99.90;;;;;;5034575;28;20199;-68
2022/01/30 08:26:37;;;;;;;1.30;1.20;;;10.70;99.90;;;;;;5029977;28;20195;-68
2022/01/30 08:29:03;;;;;;;1.57;1.40;;;10.80;99.90;;;;;;5045939;28;20229;-69
2022/01/30 08:31:29;;;;;;;1.40;1.23;;;10.80;99.90;;;;;;5044095;28;20214;-68
2022/01/30 08:33:56;;;;;;;1.30;1.20;;;10.80;99.90;;;;;;5045955;28;20195;-69
2022/01/30 08:36:22;;;;;;;1.97;1.10;;;10.90;99.90;;;;;;5048734;28;20580;-68
2022/01/30 08:38:48;;;;;;;1.47;1.10;;;10.90;99.90;;;;;;5017413;28;20218;-68
2022/01/30 08:41:14;;;;;;;1.50;1.20;;;10.90;99.90;;;;;;5045303;28;20318;-68
2022/01/30 08:43:41;;;;;;;1.80;1.13;;;10.90;99.90;;;;;;5049290;28;20211;-69
2022/01/30 08:46:07;;;;;;;1.10;1.00;;;10.90;99.90;;;;;;5067406;28;20674;-68
2022/01/30 08:48:33;;;;;;;1.10;0.97;;;11.00;99.90;;;;;;5052753;28;20183;-68
2022/01/30 08:51:00;;;;;;;1.43;1.00;;;11.10;99.90;;;;;;5047548;28;20171;-68
2022/01/30 08:53:26;;;;;;;1.17;1.07;;;11.10;99.90;;;;;;5026619;28;20191;-68
2022/01/30 08:55:53;;;;;;;0.80;0.80;;;11.10;99.90;;;;;;5053319;28;20219;-68
2022/01/30 08:58:20;;;;;;;1.27;0.90;;;11.00;99.90;;;;;;5041303;28;20186;-68
2022/01/30 09:00:46;;;;;;;1.00;0.90;;;11.10;99.90;;;;;;5035215;28;20188;-68
2022/01/30 09:03:14;;;;;;;1.10;1.00;;;11.10;99.90;;;;;;5025020;28;20601;-68
2022/01/30 09:05:41;;;;;;;2.23;1.23;;;11.10;99.90;;;;;;5036469;28;20229;-68
2022/01/30 09:08:07;;;;;;;0.83;0.83;;;11.20;99.90;;;;;;5037022;28;20184;-69
2022/01/30 09:10:39;;;;;;;1.20;0.80;;;11.20;99.90;;;;;;5042948;28;20195;-68
2022/01/30 09:13:12;;;;;;;0.80;0.70;;;11.30;99.90;;;;;;5040563;28;20194;-68
2022/01/30 09:15:41;;;;;;;1.03;0.83;;;11.40;99.90;;;;;;5023029;28;20254;-68
2022/01/30 09:18:11;;;;;;;2.60;0.83;;;11.40;99.90;;;;;;5041421;28;20278;-68
2022/01/30 09:20:41;;;;;;;0.73;0.70;;;11.50;99.90;;;;;;5022639;28;20191;-69
2022/01/30 09:23:10;;;;;;;1.00;0.87;;;11.60;99.90;;;;;;5034896;28;20754;-68
2022/01/30 09:25:38;;;;;;;1.70;0.80;;;11.80;99.90;;;;;;5037466;28;20267;-68
2022/01/30 09:28:05;;;;;;;0.60;0.60;;;11.90;99.90;;;;;;5027064;28;20266;-68
2022/01/30 09:30:33;;;;;;;0.80;0.70;;;12.00;99.90;;;;;;5025545;28;20186;-68
2022/01/30 09:33:00;;;;;;;0.60;0.60;;;12.10;99.90;;;;;;5026757;28;20188;-68
2022/01/30 09:35:27;;;;;;;0.60;0.60;;;12.10;99.90;;;;;;5043152;28;20202;-68
2022/01/30 09:37:55;;;;;;;0.60;0.60;;;12.10;99.90;;;;;;5044018;28;20679;-68
2022/01/30 09:40:22;;;;;;;0.47;0.47;;;12.20;99.90;;;;;;5042658;28;20203;-68
2022/01/30 09:42:50;;;;;;;1.53;0.80;;;12.20;99.90;;;;;;5023074;28;20700;-68
2022/01/30 09:45:20;;;;;;;0.80;0.70;;;12.20;99.90;;;;;;5045524;28;20191;-68
2022/01/30 09:47:48;;;;;;;0.60;0.60;;;12.20;99.90;;;;;;5018151;28;20199;-68
2022/01/30 09:50:17;;;;;;;1.53;0.90;;;12.10;99.90;;;;;;5036822;28;20666;-68
2022/01/30 09:52:45;;;;;;;0.83;0.80;;;12.20;99.90;;;;;;5024176;28;20191;-68
2022/01/30 09:55:12;;;;;;;0.70;0.70;;;12.30;99.90;;;;;;5042705;28;20175;-68
2022/01/30 09:57:40;;;;;;;1.57;0.60;;;12.40;99.90;;;;;;5010807;28;20194;-68
2022/01/30 10:00:09;;;;;;;1.27;1.00;;;12.40;99.90;;;;;;5042085;28;20234;-69
2022/01/30 10:02:35;;;;;;;0.80;0.80;;;12.50;99.90;;;;;;5016801;28;20858;-68
2022/01/30 10:05:03;;;;;;;1.60;0.80;;;12.50;99.90;;;;;;5035023;28;20187;-68
2022/01/30 10:07:50;;;;;;;0.87;0.60;;;12.50;99.90;;;;;;5025772;28;20274;-69
2022/01/30 10:10:24;;;;;;;1.13;0.90;;;12.50;99.90;;;;;;5031179;28;20187;-69
2022/01/30 10:13:07;;;;;;;0.73;0.70;;;12.60;99.90;;;;;;5024246;28;20187;-69
2022/01/30 10:15:56;;;;;;;0.97;0.70;;;12.70;99.90;;;;;;5035930;28;20196;-68
2022/01/30 10:18:31;;;;;;;2.87;0.87;;;12.80;99.90;;;;;;5038864;28;20204;-68
2022/01/30 10:21:00;;;;;;;1.43;0.97;;;12.80;99.90;;;;;;5042293;28;20194;-68
2022/01/30 10:23:37;;;;;;;1.50;0.77;;;12.80;99.90;;;;;;5040416;28;20306;-68
2022/01/30 10:26:08;;;;;;;2.83;1.00;;;12.80;99.90;;;;;;5036062;28;20179;-68
2022/01/30 10:28:37;;;;;;;1.20;0.90;;;12.90;99.90;;;;;;5018144;28;20272;-68
2022/01/30 10:31:08;;;;;;;1.60;0.90;;;13.00;99.90;;;;;;5023475;28;20240;-69
2022/01/30 10:33:51;;;;;;;1.57;0.90;;;13.20;99.90;;;;;;5023924;28;20194;-68
2022/01/30 10:36:30;;;;;;;1.43;1.00;;;13.40;99.90;;;;;;5036645;28;20203;-69
2022/01/30 10:39:14;;;;;;;1.57;0.80;;;13.30;99.90;;;;;;5028092;28;20219;-68
2022/01/30 10:41:45;;;;;;;0.70;0.60;;;13.10;99.90;;;;;;5027038;28;20340;-68
2022/01/30 10:44:12;;;;;;;1.63;1.03;;;13.00;99.90;;;;;;5019294;28;20666;-68
2022/01/30 10:46:49;;;;;;;0.73;0.73;;;13.10;99.90;;;;;;5021123;28;20620;-68
2022/01/30 10:49:21;;;;;;;2.40;1.00;;;13.30;99.90;;;;;;5039713;28;20187;-68
2022/01/30 10:51:58;;;;;;;1.53;1.00;;;13.50;99.90;;;;;;5005402;28;20192;-68
2022/01/30 10:54:34;;;;;;;0.70;0.70;;;14.40;99.90;;;;;;5036998;28;20187;-68
2022/01/30 10:57:12;;;;;;;1.37;1.03;;;15.10;99.90;;;;;;5035751;28;20195;-68
2022/01/30 10:59:52;;;;;;;0.97;0.80;;;16.40;99.90;;;;;;5026080;28;20190;-69
2022/01/30 11:02:24;;;;;;;1.40;0.90;;;16.20;99.90;;;;;;5017398;28;20207;-69
2022/01/30 11:05:06;;;;;;;3.50;0.93;;;15.70;99.90;;;;;;5042383;28;20646;-69
2022/01/30 11:07:36;;;;;;;1.20;0.90;;;15.70;99.90;;;;;;5020862;28;20298;-69
2022/01/30 11:10:23;;;;;;;1.70;1.00;;;15.90;99.90;;;;;;5035236;28;20329;-69
2022/01/30 11:13:08;;;;;;;1.13;0.83;;;16.10;99.90;;;;;;5014856;28;20201;-69
2022/01/30 11:15:42;;;;;;;2.40;1.23;;;16.20;99.90;;;;;;5035735;28;20256;-69
2022/01/30 11:18:12;;;;;;;1.10;0.90;;;16.10;99.90;;;;;;5024732;28;20183;-68
2022/01/30 11:20:39;;;;;;;3.37;0.93;;;15.90;99.90;;;;;;5023741;28;20199;-69
2022/01/30 11:23:11;;;;;;;1.00;0.87;;;15.60;99.90;;;;;;5039588;28;20579;-69
2022/01/30 11:25:43;;;;;;;1.53;1.13;;;15.20;99.90;;;;;;5040519;28;20188;-69
2022/01/30 11:28:11;;;;;;;1.10;1.00;;;14.90;99.90;;;;;;5037684;28;20195;-68
2022/01/30 11:30:38;;;;;;;1.73;1.03;;;14.70;99.90;;;;;;5039231;28;20801;-68
2022/01/30 11:33:05;;;;;;;1.30;1.03;;;14.50;99.90;;;;;;5020313;28;20572;-69
2022/01/30 11:35:31;;;;;;;5.33;0.97;;;14.30;99.90;;;;;;5041403;28;20200;-69
2022/01/30 11:37:58;;;;;;;3.73;1.30;;;14.00;99.90;;;;;;5038603;28;20763;-69
2022/01/30 11:40:24;;;;;;;2.53;1.10;;;13.80;99.90;;;;;;5043670;28;20188;-69
2022/01/30 11:42:51;;;;;;;0.87;0.80;;;13.70;99.90;;;;;;5044735;28;20218;-69
2022/01/30 11:45:28;;;;;;;1.30;1.20;;;13.80;99.90;;;;;;5027514;28;20889;-68
2022/01/30 11:48:18;;;;;;;1.60;1.10;;;13.80;99.90;;;;;;5046607;28;20214;-68
2022/01/30 11:50:45;;;;;;;1.20;1.10;;;13.80;99.90;;;;;;5009190;28;20548;-68
2022/01/30 11:53:25;;;;;;;2.63;1.20;;;13.90;99.90;;;;;;5043183;28;20196;-68
2022/01/30 11:56:01;;;;;;;1.70;1.10;;;13.90;99.90;;;;;;5025369;28;20246;-68
2022/01/30 11:58:33;;;;;;;2.23;1.20;;;13.90;99.90;;;;;;5041578;28;20205;-68
2022/01/30 12:01:02;;;;;;;2.03;1.10;;;14.00;99.90;;;;;;5044104;28;20241;-68
2022/01/30 12:03:35;;;;;;;1.43;1.00;;;14.00;99.90;;;;;;5027538;28;20187;-68
2022/01/30 12:06:24;;;;;;;1.70;1.20;;;13.90;99.90;;;;;;5028496;28;20660;-68
2022/01/30 12:08:53;;;;;;;2.03;1.30;;;13.90;99.90;;;;;;5041978;28;20191;-68
2022/01/30 12:11:35;;;;;;;1.60;1.40;;;13.90;99.90;;;;;;5017574;28;20215;-68
2022/01/30 12:14:12;;;;;;;2.00;1.30;;;13.90;99.90;;;;;;5022555;28;20218;-68
2022/01/30 12:17:00;;;;;;;1.50;1.30;;;13.70;99.90;;;;;;5025387;28;20689;-68
2022/01/30 12:19:43;;;;;;;2.50;1.17;;;13.60;99.90;;;;;;5023059;28;20289;-69
2022/01/30 12:22:18;;;;;;;3.00;1.10;;;13.50;99.90;;;;;;5043922;28;20837;-68
2022/01/30 12:24:51;;;;;;;3.10;1.10;;;13.50;99.90;;;;;;5031039;28;20191;-69
2022/01/30 12:27:19;;;;;;;4.10;1.33;;;13.50;99.90;;;;;;5025551;28;20187;-69
2022/01/30 12:29:52;;;;;;;2.73;1.90;;;13.50;99.90;;;;;;5005469;28;20187;-68
2022/01/30 12:32:24;;;;;;;2.40;1.30;;;13.50;99.90;;;;;;5045243;28;20736;-69
2022/01/30 12:34:57;;;;;;;2.90;1.40;;;13.50;99.90;;;;;;5041748;28;20248;-69
2022/01/30 12:37:28;;;;;;;2.47;1.50;;;13.60;99.90;;;;;;5025809;28;20563;-68
2022/01/30 12:39:57;;;;;;;2.00;1.20;;;13.60;99.90;;;;;;5046821;28;20187;-69
2022/01/30 12:42:27;;;;;;;1.70;1.23;;;13.60;99.90;;;;;;5034344;28;20221;-69
2022/01/30 12:45:01;;;;;;;2.10;1.40;;;13.60;99.90;;;;;;5044777;28;20871;-69
2022/01/30 12:47:28;;;;;;;2.47;1.30;;;13.60;99.90;;;;;;5022948;28;20308;-69
2022/01/30 12:49:58;;;;;;;1.57;1.30;;;13.60;99.90;;;;;;5026838;28;20184;-68
2022/01/30 12:54:59;;;;;;;2.00;1.20;;;13.70;99.90;;;;;;5043987;28;20647;-68
2022/01/30 12:57:28;;;;;;;2.93;1.50;;;13.60;99.90;;;;;;5043981;28;20202;-68
2022/01/30 12:59:59;;;;;;;2.03;1.20;;;13.60;99.90;;;;;;5008853;28;20679;-68
2022/01/30 13:02:34;;;;;;;2.57;1.20;;;13.50;99.90;;;;;;5018397;28;20299;-69
2022/01/30 13:05:09;;;;;;;2.70;1.03;;;13.40;99.90;;;;;;5040927;28;20306;-68
2022/01/30 13:07:37;;;;;;;1.77;0.93;;;13.40;99.90;;;;;;5037979;28;20175;-68
2022/01/30 13:10:13;;;;;;;2.40;1.00;;;13.30;99.90;;;;;;5027594;28;20187;-68
2022/01/30 13:12:45;;;;;;;1.30;1.10;;;13.20;99.90;;;;;;5021773;28;20183;-68
2022/01/30 13:15:16;;;;;;;13.80;1.33;;;13.10;99.90;;;;;;5019204;28;20279;-68
2022/01/30 13:17:45;;;;;;;1.30;1.00;;;13.10;99.90;;;;;;5034534;28;20672;-68
2022/01/30 13:20:13;;;;;;;1.20;1.07;;;13.00;99.90;;;;;;5037667;28;21704;-68
2022/01/30 13:22:43;;;;;;;1.33;1.00;;;13.00;99.90;;;;;;5028635;28;20211;-68
2022/01/30 13:25:17;;;;;;;1.60;1.17;;;12.90;99.90;;;;;;5038813;28;20192;-68
2022/01/30 13:27:50;;;;;;;6.83;1.27;;;12.80;99.90;;;;;;5032287;28;20191;-68
2022/01/30 13:30:32;;;;;;;1.43;1.13;;;12.70;99.90;;;;;;5017233;28;20187;-68
2022/01/30 13:32:59;;;;;;;1.50;1.10;;;12.60;99.90;;;;;;5005917;28;20234;-68
2022/01/30 13:35:31;;;;;;;3.20;1.33;;;12.50;99.90;;;;;;5040474;28;20184;-68
2022/01/30 13:38:05;;;;;;;2.43;1.30;;;12.50;99.90;;;;;;5036362;28;21118;-68
2022/01/30 13:40:54;;;;;;;1.53;1.10;;;12.40;99.90;;;;;;5040440;28;20187;-68
2022/01/30 13:43:26;;;;;;;1.90;1.30;;;12.40;99.90;;;;;;5024463;28;20314;-68
2022/01/30 13:48:22;;;;;;;2.17;1.50;;;12.30;99.90;;;;;;5022278;28;20680;-68
2022/01/30 13:50:52;;;;;;;1.80;1.50;;;12.20;99.90;;;;;;5023898;28;20211;-68
2022/01/30 13:53:21;;;;;;;1.50;1.20;;;12.20;99.90;;;;;;5041820;28;20183;-68
2022/01/30 13:56:01;;;;;;;1.63;1.53;;;12.30;99.90;;;;;;5019759;28;20203;-68
2022/01/30 13:58:49;;;;;;;2.40;1.47;;;12.20;99.90;;;;;;5032410;28;20353;-68
2022/01/30 14:01:24;;;;;;;3.83;1.40;;;12.20;99.90;;;;;;5038961;28;21007;-68
2022/01/30 14:04:11;;;;;;;2.60;1.60;;;12.20;99.90;;;;;;5040302;28;20277;-68
2022/01/30 14:06:42;;;;;;;2.80;1.63;;;12.20;99.90;;;;;;5041499;28;20198;-68
2022/01/30 14:09:25;;;;;;;2.13;1.30;;;12.10;99.90;;;;;;5007116;28;20183;-68